CheckWX is a tool to help pilots better visualize weather data.  It is not intended as a substitute for an official pre-flight weather briefing.

05:22:13 UTC

KSNT METAR
Stanley Ranger Station Airport
Stanley, Idaho, USA
Current

31 mins ago

KSNT 200451Z AUTO 00000KT M11/M13 A2970 RMK AO1 SLP121 T11061133
Observed
Feb-20 @ 04:51 UTC
Visibility
Temperature
-11°C / 12°F
Dewpoint
-13°C / 9°F
Humidity
85%
Altimeter
29.7" Hg
Pressure
1012.1 hPa
Previous

2 hours ago

KSNT 200351Z AUTO 19003KT M11/M14 A2972 RMK AO1 SLP135 T11061139
Observed
Feb-20 @ 03:51 UTC
Wind
  • 190° at 3 KTS
Visibility
Temperature
-11°C / 12°F
Dewpoint
-14°C / 7°F
Humidity
79%
Altimeter
29.72" Hg
Pressure
1013.5 hPa
Previous

3 hours ago

KSNT 200251Z AUTO 00000KT M11/M14 A2975 RMK AO1 SLP143 P0001 60001 T11061139 58010
Observed
Feb-20 @ 02:51 UTC
Visibility
Temperature
-11°C / 12°F
Dewpoint
-14°C / 7°F
Humidity
79%
Altimeter
29.75" Hg
Pressure
1014.3 hPa
Current Rain
0.01"